createdAt,value
2023-04-13T00:00:09.050Z,5.85
2023-04-13T00:02:39.117Z,8.27
2023-04-13T00:05:11.003Z,9.60
2023-04-13T00:07:38.646Z,7.70
2023-04-13T00:10:09.996Z,7.68
2023-04-13T00:12:37.549Z,5.68
2023-04-13T00:15:05.747Z,5.40
2023-04-13T00:17:33.480Z,7.50
2023-04-13T00:20:00.332Z,5.15
2023-04-13T00:22:30.229Z,7.60
2023-04-13T00:24:57.662Z,6.90
2023-04-13T00:27:27.592Z,6.65
2023-04-13T00:29:56.905Z,9.68
2023-04-13T00:32:24.708Z,8.45
2023-04-13T00:34:53.075Z,7.70
2023-04-13T00:37:21.600Z,9.65
2023-04-13T00:39:48.247Z,8.18
2023-04-13T00:42:18.144Z,8.20
2023-04-13T00:44:44.969Z,7.47
2023-04-13T00:47:12.230Z,7.05
2023-04-13T00:49:38.987Z,12.75
2023-04-13T00:52:08.365Z,12.30
2023-04-13T00:54:35.660Z,10.23
2023-04-13T00:57:02.150Z,9.75
2023-04-13T00:59:30.228Z,10.95
2023-04-13T01:01:56.921Z,6.80
2023-04-13T01:04:25.605Z,6.72
2023-04-13T01:07:18.637Z,7.57
2023-04-13T01:10:18.629Z,7.55
2023-04-13T01:13:07.131Z,8.02
2023-04-13T01:15:40.978Z,9.05
2023-04-13T01:18:09.901Z,6.65
2023-04-13T01:20:38.435Z,8.43
2023-04-13T01:23:09.678Z,7.90
2023-04-13T01:25:57.552Z,7.97
2023-04-13T01:28:26.106Z,11.13
2023-04-13T01:30:53.986Z,7.38
2023-04-13T01:33:22.898Z,9.48
2023-04-13T01:35:50.118Z,8.77
2023-04-13T01:38:24.497Z,9.73
2023-04-13T01:40:53.185Z,8.32
2023-04-13T01:43:20.903Z,8.02
2023-04-13T01:46:10.148Z,8.40
2023-04-13T01:49:02.459Z,8.98
2023-04-13T01:51:50.382Z,8.25
2023-04-13T01:54:25.770Z,8.55
2023-04-13T01:56:53.926Z,8.43
2023-04-13T01:59:22.471Z,14.10
2023-04-13T02:01:49.173Z,6.63
2023-04-13T02:04:15.939Z,10.02
2023-04-13T02:06:44.449Z,8.77
2023-04-13T02:09:11.097Z,8.45
2023-04-13T02:11:38.010Z,10.32
2023-04-13T02:14:05.862Z,13.20
2023-04-13T02:16:33.075Z,9.75
2023-04-13T02:19:00.279Z,10.23
2023-04-13T02:21:27.031Z,7.20
2023-04-13T02:23:53.692Z,8.43
2023-04-13T02:26:22.422Z,7.25
2023-04-13T02:28:51.255Z,10.02
2023-04-13T02:31:19.756Z,8.15
2023-04-13T02:33:46.653Z,9.25
2023-04-13T02:36:13.605Z,10.77
2023-04-13T02:38:48.655Z,10.38
2023-04-13T02:41:25.629Z,11.02
2023-04-13T02:43:52.377Z,6.85
2023-04-13T02:46:23.808Z,6.85
2023-04-13T02:48:56.864Z,8.32
2023-04-13T02:51:25.441Z,8.13
2023-04-13T02:53:52.584Z,5.32
2023-04-13T02:56:19.187Z,8.90
2023-04-13T02:58:49.176Z,5.50
2023-04-13T03:01:18.142Z,5.93
2023-04-13T03:03:45.791Z,4.60
2023-04-13T03:06:12.521Z,5.15
2023-04-13T03:08:46.303Z,4.57
2023-04-13T03:11:18.770Z,6.07
2023-04-13T03:13:58.580Z,5.38
2023-04-13T03:16:25.644Z,4.80
2023-04-13T03:18:52.274Z,4.53
2023-04-13T03:21:19.090Z,6.50
2023-04-13T03:23:58.022Z,6.07
2023-04-13T03:26:25.909Z,3.55
2023-04-13T03:28:54.547Z,4.32
2023-04-13T03:31:22.357Z,3.53
2023-04-13T03:33:51.153Z,8.45
2023-04-13T03:36:17.823Z,5.00
2023-04-13T03:38:44.377Z,3.08
2023-04-13T03:41:11.642Z,3.45
2023-04-13T03:43:44.260Z,3.28
2023-04-13T03:46:13.271Z,5.05
2023-04-13T03:48:42.213Z,3.47
2023-04-13T03:51:11.550Z,4.18
2023-04-13T03:53:47.381Z,6.15
2023-04-13T03:56:16.145Z,3.63
2023-04-13T03:58:42.710Z,5.72
2023-04-13T04:01:11.382Z,4.20
2023-04-13T04:03:46.073Z,4.00
2023-04-13T04:06:13.192Z,2.50
2023-04-13T04:08:45.448Z,2.40
2023-04-13T04:11:24.432Z,2.30
2023-04-13T04:13:51.638Z,2.80
2023-04-13T04:16:19.091Z,2.47
2023-04-13T04:18:51.448Z,2.72
2023-04-13T04:21:21.671Z,5.72
2023-04-13T04:23:48.646Z,2.00
2023-04-13T04:26:20.382Z,2.10
2023-04-13T04:29:01.771Z,1.63
2023-04-13T04:31:36.859Z,2.08
2023-04-13T04:34:06.169Z,1.10
2023-04-13T04:36:36.357Z,1.73
2023-04-13T04:39:04.760Z,2.45
2023-04-13T04:41:39.707Z,1.38
2023-04-13T04:44:08.172Z,2.03
2023-04-13T04:46:41.666Z,2.17
2023-04-13T04:49:12.177Z,0.93
2023-04-13T04:51:39.494Z,1.02
2023-04-13T04:54:07.356Z,2.38
2023-04-13T04:56:33.966Z,1.23
2023-04-13T04:59:00.779Z,1.63
2023-04-13T05:01:44.591Z,2.08
2023-04-13T05:04:13.114Z,1.58
2023-04-13T05:06:42.278Z,1.52
2023-04-13T05:09:12.483Z,1.60
2023-04-13T05:11:44.492Z,3.15
2023-04-13T05:14:12.841Z,1.35
2023-04-13T05:16:40.177Z,0.85
2023-04-13T05:19:14.100Z,3.45
2023-04-13T05:22:01.079Z,1.80
2023-04-13T05:24:31.040Z,3.00
2023-04-13T05:26:58.829Z,1.50
2023-04-13T05:29:25.435Z,2.33
2023-04-13T05:31:52.133Z,1.98
2023-04-13T05:34:19.312Z,0.65
2023-04-13T05:37:02.806Z,1.75
2023-04-13T05:39:30.822Z,3.22
2023-04-13T05:41:57.586Z,1.77
2023-04-13T05:44:25.697Z,1.65
2023-04-13T05:46:52.629Z,0.85
2023-04-13T05:49:19.471Z,1.35
2023-04-13T05:51:46.495Z,1.52
2023-04-13T05:54:14.059Z,1.30
2023-04-13T05:56:47.211Z,0.80
2023-04-13T05:59:14.385Z,1.17
2023-04-13T06:01:41.076Z,1.67
2023-04-13T06:04:09.501Z,1.00
2023-04-13T06:06:36.260Z,2.92
2023-04-13T06:09:05.352Z,1.02
2023-04-13T06:11:31.971Z,1.33
2023-04-13T06:14:00.204Z,3.33
2023-04-13T06:16:27.084Z,1.52
2023-04-13T06:18:54.565Z,1.30
2023-04-13T06:21:21.422Z,0.93
2023-04-13T06:23:47.984Z,1.85
2023-04-13T06:26:25.383Z,1.90
2023-04-13T06:28:55.241Z,2.83
2023-04-13T06:31:23.353Z,2.75
2023-04-13T06:33:51.615Z,1.48
2023-04-13T06:36:23.995Z,0.88
2023-04-13T06:38:52.289Z,1.73
2023-04-13T06:41:20.380Z,2.13
2023-04-13T06:43:48.663Z,3.95
2023-04-13T06:46:35.554Z,1.67
2023-04-13T06:49:09.153Z,4.32
2023-04-13T06:51:37.853Z,1.75
2023-04-13T06:54:04.545Z,0.80
2023-04-13T06:56:31.246Z,2.22
2023-04-13T06:59:02.596Z,0.70
2023-04-13T07:01:31.303Z,0.75
2023-04-13T07:03:59.052Z,1.95
2023-04-13T07:06:26.520Z,1.52
2023-04-13T07:08:53.206Z,1.02
2023-04-13T07:11:20.597Z,2.25
2023-04-13T07:13:47.505Z,0.90
2023-04-13T07:16:15.905Z,0.70
2023-04-13T07:18:45.738Z,0.93
2023-04-13T07:21:12.319Z,0.77
2023-04-13T07:23:57.799Z,2.63
2023-04-13T07:26:24.522Z,4.22
2023-04-13T07:28:51.156Z,2.33
2023-04-13T07:31:20.272Z,2.47
2023-04-13T07:33:49.887Z,3.17
2023-04-13T07:36:23.490Z,2.13
2023-04-13T07:38:52.886Z,2.10
2023-04-13T07:41:22.585Z,4.20
2023-04-13T07:43:52.935Z,1.15
2023-04-13T07:46:20.553Z,1.13
2023-04-13T07:48:49.370Z,3.72
2023-04-13T07:51:23.760Z,6.15
2023-04-13T07:53:52.250Z,3.47
2023-04-13T07:56:19.631Z,1.90
2023-04-13T07:58:46.627Z,4.03
2023-04-13T08:01:13.204Z,1.58
2023-04-13T08:03:39.817Z,3.28
2023-04-13T08:06:13.539Z,2.17
2023-04-13T08:08:40.209Z,3.70
2023-04-13T08:11:08.659Z,0.90
2023-04-13T08:13:35.841Z,2.97
2023-04-13T08:16:02.895Z,2.00
2023-04-13T08:18:32.157Z,2.00
2023-04-13T08:20:59.529Z,1.45
2023-04-13T08:23:28.522Z,1.75
2023-04-13T08:25:57.083Z,1.08
2023-04-13T08:28:23.958Z,0.93
2023-04-13T08:30:50.578Z,0.98
2023-04-13T08:33:17.432Z,5.28
2023-04-13T08:35:44.304Z,0.60
2023-04-13T08:38:12.561Z,4.63
2023-04-13T08:40:44.196Z,1.38
2023-04-13T08:43:15.901Z,0.90
2023-04-13T08:45:42.896Z,0.70
2023-04-13T08:48:13.979Z,1.10
2023-04-13T08:50:42.766Z,2.88
2023-04-13T08:53:10.485Z,4.60
2023-04-13T08:55:45.846Z,1.45
2023-04-13T08:58:13.798Z,0.93
2023-04-13T09:00:41.817Z,1.42
2023-04-13T09:03:14.661Z,1.35
2023-04-13T09:05:54.481Z,3.60
2023-04-13T09:08:22.722Z,1.25
2023-04-13T09:10:51.477Z,0.85
2023-04-13T09:13:18.483Z,1.02
2023-04-13T09:15:47.447Z,1.30
2023-04-13T09:18:33.638Z,1.25
2023-04-13T09:21:06.332Z,1.85
2023-04-13T09:23:32.808Z,0.40
2023-04-13T09:26:06.923Z,0.80
2023-04-13T09:28:33.765Z,4.63
2023-04-13T09:31:06.393Z,4.13
2023-04-13T09:33:48.782Z,0.50
2023-04-13T09:36:17.568Z,0.90
2023-04-13T09:38:47.926Z,0.40
2023-04-13T09:41:14.541Z,1.88
2023-04-13T09:43:41.203Z,0.95
2023-04-13T09:46:14.622Z,0.82
2023-04-13T09:48:41.828Z,0.82
2023-04-13T09:51:09.817Z,0.68
2023-04-13T09:53:43.494Z,1.05
2023-04-13T09:56:10.094Z,1.02
2023-04-13T09:58:47.552Z,5.47
2023-04-13T10:01:17.026Z,1.55
2023-04-13T10:03:44.156Z,4.68
2023-04-13T10:06:10.764Z,0.68
2023-04-13T10:08:39.057Z,0.63
2023-04-13T10:11:12.032Z,0.38
2023-04-13T10:13:45.951Z,0.98
2023-04-13T10:16:18.404Z,1.10
2023-04-13T10:19:01.611Z,1.58
2023-04-13T10:21:35.387Z,0.82
2023-04-13T10:26:37.405Z,2.15
2023-04-13T10:29:04.872Z,0.95
2023-04-13T10:31:38.921Z,0.90
2023-04-13T10:34:09.756Z,0.50
2023-04-13T10:36:43.895Z,0.70
2023-04-13T10:39:11.003Z,1.15
2023-04-13T10:41:38.070Z,1.33
2023-04-13T10:44:07.523Z,2.85
2023-04-13T10:46:36.080Z,0.88
2023-04-13T10:49:03.979Z,1.13
2023-04-13T10:51:44.023Z,2.28
2023-04-13T10:54:12.787Z,1.65
2023-04-13T10:56:40.523Z,0.77
2023-04-13T10:59:07.555Z,0.68
2023-04-13T11:01:35.781Z,0.45
2023-04-13T11:04:06.784Z,1.13
2023-04-13T11:06:37.266Z,1.42
2023-04-13T11:09:06.807Z,1.38
2023-04-13T11:11:37.217Z,1.60
2023-04-13T11:14:03.934Z,3.70
2023-04-13T11:16:31.210Z,0.40
2023-04-13T11:19:02.623Z,0.30
2023-04-13T11:21:29.895Z,1.30
2023-04-13T11:23:56.700Z,0.50
2023-04-13T11:26:39.871Z,1.25
2023-04-13T11:29:17.382Z,0.35
2023-04-13T11:31:44.072Z,0.25
2023-04-13T11:34:13.924Z,0.57
2023-04-13T11:36:41.111Z,0.98
2023-04-13T11:39:10.260Z,1.75
2023-04-13T11:41:41.625Z,0.40
2023-04-13T11:44:12.653Z,2.13
2023-04-13T11:46:39.286Z,0.70
2023-04-13T11:49:06.515Z,0.98
2023-04-13T11:51:33.811Z,1.20
2023-04-13T11:54:01.571Z,1.92
2023-04-13T11:56:28.779Z,0.70
2023-04-13T11:58:55.418Z,0.63
2023-04-13T12:01:26.112Z,0.90
2023-04-13T12:04:07.939Z,1.33
2023-04-13T12:06:42.210Z,0.52
2023-04-13T12:09:13.340Z,0.70
2023-04-13T12:11:46.722Z,0.57
2023-04-13T12:19:23.387Z,0.90
2023-04-13T12:21:53.104Z,1.23
2023-04-13T12:24:20.059Z,0.40
2023-04-13T12:29:16.350Z,1.40
2023-04-13T12:31:45.486Z,0.20
2023-04-13T12:34:12.145Z,0.30
2023-04-13T12:36:38.696Z,0.68
2023-04-13T12:39:06.667Z,0.32
2023-04-13T12:41:33.647Z,0.57
2023-04-13T12:44:00.396Z,0.65
2023-04-13T12:46:27.961Z,0.43
2023-04-13T12:48:54.921Z,2.72
2023-04-13T12:51:21.559Z,2.08
2023-04-13T12:53:48.173Z,2.50
2023-04-13T12:56:14.772Z,3.20
2023-04-13T12:58:41.529Z,2.20
2023-04-13T13:01:08.716Z,2.00
2023-04-13T13:03:36.867Z,1.10
2023-04-13T13:06:05.327Z,0.77
2023-04-13T13:08:34.939Z,0.35
2023-04-13T13:11:02.800Z,0.68
2023-04-13T13:13:29.365Z,0.93
2023-04-13T13:15:55.951Z,0.68
2023-04-13T13:18:22.596Z,2.80
2023-04-13T13:20:53.794Z,0.90
2023-04-13T13:23:20.379Z,4.40
2023-04-13T13:26:04.119Z,0.50
2023-04-13T13:28:33.341Z,0.60
2023-04-13T13:31:00.061Z,1.38
2023-04-13T13:33:26.877Z,0.93
2023-04-13T13:35:53.373Z,1.95
2023-04-13T13:38:19.994Z,0.40
2023-04-13T13:40:46.662Z,0.43
2023-04-13T13:43:13.932Z,1.95
2023-04-13T13:45:41.201Z,0.25
2023-04-13T13:48:07.927Z,0.40
2023-04-13T13:50:49.154Z,1.02
2023-04-13T13:53:15.822Z,2.28
2023-04-13T13:55:42.516Z,1.23
2023-04-13T13:58:09.051Z,0.85
2023-04-13T14:00:35.623Z,1.20
2023-04-13T14:03:02.368Z,0.77
2023-04-13T14:05:29.056Z,1.05
2023-04-13T14:07:55.869Z,1.65
2023-04-13T14:10:22.398Z,1.45
2023-04-13T14:12:50.790Z,1.30
2023-04-13T14:15:17.600Z,0.80
2023-04-13T14:17:48.384Z,1.05
2023-04-13T14:20:22.377Z,1.15
2023-04-13T14:22:48.904Z,1.95
2023-04-13T14:25:15.471Z,0.88
2023-04-13T14:27:42.222Z,0.73
2023-04-13T14:30:09.351Z,2.60
2023-04-13T14:32:36.223Z,0.60
2023-04-13T14:35:03.349Z,0.73
2023-04-13T14:37:29.998Z,0.93
2023-04-13T14:39:56.614Z,2.92
2023-04-13T14:42:24.835Z,1.45
2023-04-13T14:44:51.886Z,1.13
2023-04-13T14:47:19.516Z,0.75
2023-04-13T14:49:47.234Z,1.85
2023-04-13T14:52:15.074Z,1.60
2023-04-13T14:54:41.878Z,0.63
2023-04-13T14:57:09.774Z,0.65
2023-04-13T14:59:37.427Z,0.50
2023-04-13T15:02:04.279Z,0.90
2023-04-13T15:04:31.478Z,0.80
2023-04-13T15:06:58.755Z,0.90
2023-04-13T15:09:25.620Z,1.55
2023-04-13T15:11:52.562Z,1.58
2023-04-13T15:14:19.245Z,2.72
2023-04-13T15:16:46.266Z,2.35
2023-04-13T15:19:13.410Z,1.17
2023-04-13T15:21:40.110Z,1.20
2023-04-13T15:24:08.509Z,1.50
2023-04-13T15:26:40.685Z,2.08
2023-04-13T15:29:10.344Z,1.98
2023-04-13T15:31:38.592Z,1.15
2023-04-13T15:34:06.474Z,1.90
2023-04-13T15:36:33.081Z,0.63
2023-04-13T15:39:00.534Z,2.17
2023-04-13T15:41:27.816Z,2.10
2023-04-13T15:43:55.670Z,1.63
2023-04-13T15:46:22.333Z,1.50
2023-04-13T15:48:50.466Z,2.00
2023-04-13T15:51:17.101Z,1.20
2023-04-13T15:53:43.581Z,1.08
2023-04-13T15:56:10.388Z,1.23
2023-04-13T15:58:37.017Z,0.73
2023-04-13T16:01:06.150Z,1.77
2023-04-13T16:03:34.155Z,1.45
2023-04-13T16:06:01.730Z,1.77
2023-04-13T16:08:29.170Z,1.63
2023-04-13T16:10:55.701Z,0.90
2023-04-13T16:13:22.898Z,5.57
2023-04-13T16:15:55.833Z,2.53
2023-04-13T16:18:32.263Z,1.95
2023-04-13T16:21:02.348Z,1.48
2023-04-13T16:23:29.529Z,0.90
2023-04-13T16:25:56.318Z,0.73
2023-04-13T16:28:22.990Z,0.75
2023-04-13T16:30:49.551Z,1.60
2023-04-13T16:33:16.472Z,1.92
2023-04-13T16:35:43.038Z,1.00
2023-04-13T16:38:09.571Z,0.55
2023-04-13T16:40:36.383Z,0.85
2023-04-13T16:43:05.339Z,3.28
2023-04-13T16:45:32.619Z,0.70
2023-04-13T16:47:59.382Z,1.17
2023-04-13T16:50:31.460Z,0.75
2023-04-13T16:52:58.991Z,1.60
2023-04-13T16:55:28.178Z,1.25
2023-04-13T16:57:55.414Z,1.10
2023-04-13T17:00:22.305Z,1.20
2023-04-13T17:02:49.248Z,1.27
2023-04-13T17:05:16.202Z,2.67
2023-04-13T17:07:44.232Z,1.00
2023-04-13T17:10:14.008Z,2.88
2023-04-13T17:12:40.809Z,2.35
2023-04-13T17:15:08.134Z,1.95
2023-04-13T17:17:35.185Z,2.92
2023-04-13T17:20:02.090Z,1.48
2023-04-13T17:22:28.703Z,1.25
2023-04-13T17:24:55.633Z,1.10
2023-04-13T17:27:22.309Z,1.88
2023-04-13T17:29:49.782Z,1.63
2023-04-13T17:32:16.668Z,1.33
2023-04-13T17:34:44.662Z,2.05
2023-04-13T17:37:11.818Z,2.78
2023-04-13T17:39:42.173Z,1.67
2023-04-13T17:42:09.713Z,2.15
2023-04-13T17:44:36.428Z,3.00
2023-04-13T17:47:03.014Z,1.83
2023-04-13T17:49:29.652Z,1.40
2023-04-13T17:51:59.500Z,1.60
2023-04-13T17:54:27.201Z,3.63
2023-04-13T17:56:54.718Z,1.38
2023-04-13T17:59:21.864Z,2.60
2023-04-13T18:01:52.105Z,2.15
2023-04-13T18:04:19.174Z,2.50
2023-04-13T18:06:46.028Z,2.53
2023-04-13T18:09:12.890Z,1.85
2023-04-13T18:11:39.950Z,1.42
2023-04-13T18:14:09.059Z,2.33
2023-04-13T18:16:36.200Z,1.60
2023-04-13T18:19:03.073Z,1.33
2023-04-13T18:21:30.153Z,1.33
2023-04-13T18:23:56.917Z,1.85
2023-04-13T18:26:23.717Z,1.00
2023-04-13T18:28:50.585Z,1.63
2023-04-13T18:31:17.376Z,3.08
2023-04-13T18:33:44.530Z,2.35
2023-04-13T18:36:18.011Z,2.63
2023-04-13T18:38:45.366Z,2.88
2023-04-13T18:41:12.654Z,2.38
2023-04-13T18:43:39.618Z,3.47
2023-04-13T18:46:07.592Z,3.00
2023-04-13T18:48:34.740Z,5.50
2023-04-13T18:51:02.869Z,3.00
2023-04-13T18:53:30.427Z,2.63
2023-04-13T18:55:58.263Z,4.03
2023-04-13T18:58:24.797Z,2.38
2023-04-13T19:00:51.551Z,3.53
2023-04-13T19:03:18.232Z,4.13
2023-04-13T19:05:44.817Z,3.67
2023-04-13T19:08:13.372Z,2.25
2023-04-13T19:10:42.273Z,3.40
2023-04-13T19:13:09.173Z,8.80
2023-04-13T19:15:36.210Z,2.50
2023-04-13T19:18:04.397Z,2.72
2023-04-13T19:20:31.247Z,3.97
2023-04-13T19:22:57.860Z,4.40
2023-04-13T19:25:24.396Z,2.15
2023-04-13T19:27:51.063Z,3.42
2023-04-13T19:30:18.895Z,4.00
2023-04-13T19:32:47.150Z,2.42
2023-04-13T19:35:13.920Z,2.13
2023-04-13T19:37:40.812Z,2.28
2023-04-13T19:40:13.520Z,4.72
2023-04-13T19:42:45.182Z,2.28
2023-04-13T19:45:15.480Z,3.80
2023-04-13T19:47:42.468Z,3.03
2023-04-13T19:50:11.240Z,3.13
2023-04-13T19:52:39.196Z,4.03
2023-04-13T19:55:08.535Z,5.65
2023-04-13T19:57:36.889Z,3.33
2023-04-13T20:00:07.388Z,3.40
2023-04-13T20:02:34.028Z,3.92
2023-04-13T20:05:00.817Z,3.45
2023-04-13T20:07:27.383Z,2.60
2023-04-13T20:09:53.880Z,3.40
2023-04-13T20:12:21.061Z,3.05
2023-04-13T20:14:48.284Z,3.22
2023-04-13T20:17:16.285Z,3.10
2023-04-13T20:19:42.870Z,5.43
2023-04-13T20:22:10.158Z,4.03
2023-04-13T20:24:36.753Z,2.88
2023-04-13T20:27:03.276Z,5.55
2023-04-13T20:29:29.856Z,5.18
2023-04-13T20:31:56.418Z,2.20
2023-04-13T20:34:24.238Z,2.50
2023-04-13T20:36:50.823Z,3.75
2023-04-13T20:39:25.192Z,6.25
2023-04-13T20:41:55.910Z,3.35
2023-04-13T20:44:23.856Z,4.70
2023-04-13T20:46:54.657Z,2.95
2023-04-13T20:49:25.838Z,3.53
2023-04-13T20:51:53.694Z,3.38
2023-04-13T20:54:20.228Z,3.55
2023-04-13T20:56:48.411Z,2.63
2023-04-13T20:59:18.350Z,4.65
2023-04-13T21:01:45.733Z,4.97
2023-04-13T21:04:12.521Z,3.95
2023-04-13T21:06:40.334Z,4.68
2023-04-13T21:09:08.147Z,5.32
2023-04-13T21:11:34.955Z,3.60
2023-04-13T21:14:01.873Z,6.30
2023-04-13T21:16:28.851Z,6.15
2023-04-13T21:18:55.931Z,4.88
2023-04-13T21:21:23.601Z,3.47
2023-04-13T21:23:51.255Z,4.47
2023-04-13T21:26:17.900Z,4.95
2023-04-13T21:28:44.534Z,3.63
2023-04-13T21:31:11.413Z,4.03
2023-04-13T21:33:37.983Z,4.18
2023-04-13T21:38:44.244Z,8.52
2023-04-13T21:41:18.218Z,8.05
2023-04-13T21:43:44.993Z,6.18
2023-04-13T21:46:13.258Z,4.43
2023-04-13T21:48:40.687Z,5.50
2023-04-13T21:51:08.997Z,5.03
2023-04-13T21:53:36.516Z,6.82
2023-04-13T21:56:03.900Z,3.78
2023-04-13T21:58:39.480Z,6.00
2023-04-13T22:01:07.191Z,5.50
2023-04-13T22:03:37.993Z,8.45
2023-04-13T22:06:07.515Z,8.05
2023-04-13T22:08:34.284Z,6.88
2023-04-13T22:11:01.346Z,6.32
2023-04-13T22:13:28.317Z,6.90
2023-04-13T22:15:55.366Z,4.68
2023-04-13T22:18:22.069Z,5.25
2023-04-13T22:20:48.679Z,4.32
2023-04-13T22:23:15.628Z,6.25
2023-04-13T22:25:42.379Z,5.63
2023-04-13T22:28:08.908Z,6.13
2023-04-13T22:30:36.291Z,4.85
2023-04-13T22:33:02.890Z,6.80
2023-04-13T22:35:29.471Z,4.00
2023-04-13T22:37:56.024Z,6.50
2023-04-13T22:40:22.526Z,5.47
2023-04-13T22:42:49.024Z,6.57
2023-04-13T22:45:15.696Z,4.25
2023-04-13T22:47:42.292Z,5.43
2023-04-13T22:50:09.191Z,5.13
2023-04-13T22:52:35.797Z,5.05
2023-04-13T22:55:02.400Z,4.38
2023-04-13T22:57:28.928Z,5.45
2023-04-13T22:59:55.432Z,7.97
2023-04-13T23:02:22.082Z,4.18
2023-04-13T23:04:48.676Z,6.78
2023-04-13T23:07:15.303Z,2.85
2023-04-13T23:09:42.037Z,5.75
2023-04-13T23:12:08.506Z,4.03
2023-04-13T23:14:34.997Z,6.03
2023-04-13T23:17:01.506Z,4.97
2023-04-13T23:19:28.032Z,7.10
2023-04-13T23:21:54.651Z,5.72
2023-04-13T23:24:21.173Z,6.15
2023-04-13T23:26:47.695Z,5.35
2023-04-13T23:29:16.101Z,4.47
2023-04-13T23:31:42.755Z,5.13
2023-04-13T23:34:09.341Z,7.22
2023-04-13T23:36:36.557Z,6.75
2023-04-13T23:39:04.273Z,7.25
2023-04-13T23:41:30.803Z,4.25
2023-04-13T23:43:57.333Z,5.45
2023-04-13T23:46:24.505Z,7.55
2023-04-13T23:48:51.113Z,4.80
2023-04-13T23:51:17.656Z,7.03
2023-04-13T23:53:44.235Z,5.22
2023-04-13T23:56:10.733Z,5.75
2023-04-13T23:58:37.226Z,5.20
